sensor_id;sensor_type;location;lat;lon;timestamp;P1;durP1;ratioP1;P2;durP2;ratioP2
11642;SDS011;5877;50.930;6.918;2024-01-30T00:04:47;11.33;;;9.03;;
11642;SDS011;5877;50.930;6.918;2024-01-30T00:14:29;12.40;;;9.13;;
11642;SDS011;5877;50.930;6.918;2024-01-30T00:24:11;13.23;;;9.63;;
11642;SDS011;5877;50.930;6.918;2024-01-30T00:33:53;12.37;;;9.43;;
11642;SDS011;5877;50.930;6.918;2024-01-30T00:43:37;11.43;;;9.50;;
11642;SDS011;5877;50.930;6.918;2024-01-30T00:53:21;10.37;;;9.37;;
11642;SDS011;5877;50.930;6.918;2024-01-30T01:03:03;10.63;;;9.17;;
11642;SDS011;5877;50.930;6.918;2024-01-30T01:12:47;9.47;;;8.37;;
11642;SDS011;5877;50.930;6.918;2024-01-30T01:22:30;11.27;;;9.00;;
11642;SDS011;5877;50.930;6.918;2024-01-30T01:32:13;11.80;;;8.60;;
11642;SDS011;5877;50.930;6.918;2024-01-30T01:41:55;12.80;;;8.50;;
11642;SDS011;5877;50.930;6.918;2024-01-30T01:51:38;10.90;;;8.13;;
11642;SDS011;5877;50.930;6.918;2024-01-30T02:01:23;9.47;;;8.07;;
11642;SDS011;5877;50.930;6.918;2024-01-30T02:11:07;11.23;;;8.10;;
11642;SDS011;5877;50.930;6.918;2024-01-30T02:20:50;10.17;;;8.03;;
11642;SDS011;5877;50.930;6.918;2024-01-30T02:30:35;9.87;;;7.77;;
11642;SDS011;5877;50.930;6.918;2024-01-30T02:40:17;11.17;;;8.07;;
11642;SDS011;5877;50.930;6.918;2024-01-30T02:50:00;8.80;;;7.90;;
11642;SDS011;5877;50.930;6.918;2024-01-30T02:59:45;8.43;;;7.53;;
11642;SDS011;5877;50.930;6.918;2024-01-30T03:09:27;11.27;;;7.70;;
11642;SDS011;5877;50.930;6.918;2024-01-30T03:19:12;9.67;;;8.13;;
11642;SDS011;5877;50.930;6.918;2024-01-30T03:28:54;9.27;;;7.43;;
11642;SDS011;5877;50.930;6.918;2024-01-30T03:38:36;10.37;;;7.80;;
11642;SDS011;5877;50.930;6.918;2024-01-30T03:48:19;9.43;;;7.57;;
11642;SDS011;5877;50.930;6.918;2024-01-30T03:58:02;8.63;;;7.77;;
11642;SDS011;5877;50.930;6.918;2024-01-30T04:07:44;9.10;;;7.90;;
11642;SDS011;5877;50.930;6.918;2024-01-30T04:17:27;10.27;;;7.57;;
11642;SDS011;5877;50.930;6.918;2024-01-30T04:27:11;9.23;;;7.77;;
11642;SDS011;5877;50.930;6.918;2024-01-30T04:36:52;8.43;;;7.33;;
11642;SDS011;5877;50.930;6.918;2024-01-30T04:46:34;10.07;;;7.40;;
11642;SDS011;5877;50.930;6.918;2024-01-30T04:56:18;8.53;;;7.63;;
11642;SDS011;5877;50.930;6.918;2024-01-30T05:06:01;8.60;;;7.57;;
11642;SDS011;5877;50.930;6.918;2024-01-30T05:15:49;10.30;;;8.20;;
11642;SDS011;5877;50.930;6.918;2024-01-30T05:25:31;9.73;;;7.93;;
11642;SDS011;5877;50.930;6.918;2024-01-30T05:35:14;8.80;;;7.37;;
11642;SDS011;5877;50.930;6.918;2024-01-30T05:44:57;10.27;;;7.90;;
11642;SDS011;5877;50.930;6.918;2024-01-30T05:54:39;9.97;;;8.03;;
11642;SDS011;5877;50.930;6.918;2024-01-30T06:04:21;9.30;;;8.27;;
11642;SDS011;5877;50.930;6.918;2024-01-30T06:14:05;10.57;;;8.00;;
11642;SDS011;5877;50.930;6.918;2024-01-30T06:23:47;11.33;;;8.27;;
11642;SDS011;5877;50.930;6.918;2024-01-30T06:33:29;8.97;;;7.80;;
11642;SDS011;5877;50.930;6.918;2024-01-30T06:43:11;10.50;;;8.63;;
11642;SDS011;5877;50.930;6.918;2024-01-30T06:52:54;10.73;;;8.83;;
11642;SDS011;5877;50.930;6.918;2024-01-30T07:02:36;8.97;;;8.07;;
11642;SDS011;5877;50.930;6.918;2024-01-30T07:12:18;9.60;;;8.53;;
11642;SDS011;5877;50.930;6.918;2024-01-30T07:22:00;9.80;;;8.17;;
11642;SDS011;5877;50.930;6.918;2024-01-30T07:31:45;9.93;;;8.40;;
11642;SDS011;5877;50.930;6.918;2024-01-30T07:41:28;9.03;;;8.13;;
11642;SDS011;5877;50.930;6.918;2024-01-30T07:51:11;9.70;;;8.07;;
11642;SDS011;5877;50.930;6.918;2024-01-30T08:00:53;10.07;;;7.17;;
11642;SDS011;5877;50.930;6.918;2024-01-30T08:10:37;8.37;;;7.50;;
11642;SDS011;5877;50.930;6.918;2024-01-30T08:20:19;9.43;;;7.60;;
11642;SDS011;5877;50.930;6.918;2024-01-30T08:30:02;11.53;;;8.30;;
11642;SDS011;5877;50.930;6.918;2024-01-30T08:39:44;9.07;;;8.20;;
11642;SDS011;5877;50.930;6.918;2024-01-30T08:49:27;9.53;;;8.23;;
11642;SDS011;5877;50.930;6.918;2024-01-30T08:59:09;9.57;;;7.77;;
11642;SDS011;5877;50.930;6.918;2024-01-30T09:08:54;11.80;;;7.80;;
11642;SDS011;5877;50.930;6.918;2024-01-30T09:18:36;13.73;;;8.23;;
11642;SDS011;5877;50.930;6.918;2024-01-30T09:28:19;8.93;;;7.90;;
11642;SDS011;5877;50.930;6.918;2024-01-30T09:38:07;16.13;;;8.43;;
11642;SDS011;5877;50.930;6.918;2024-01-30T09:47:49;8.90;;;7.90;;
11642;SDS011;5877;50.930;6.918;2024-01-30T09:57:34;8.97;;;7.30;;
11642;SDS011;5877;50.930;6.918;2024-01-30T10:07:17;12.20;;;8.77;;
11642;SDS011;5877;50.930;6.918;2024-01-30T10:17:01;10.07;;;7.87;;
11642;SDS011;5877;50.930;6.918;2024-01-30T10:26:55;10.63;;;8.03;;
11642;SDS011;5877;50.930;6.918;2024-01-30T10:36:41;9.43;;;7.53;;
11642;SDS011;5877;50.930;6.918;2024-01-30T10:46:30;10.80;;;7.67;;
11642;SDS011;5877;50.930;6.918;2024-01-30T10:56:13;8.63;;;7.20;;
11642;SDS011;5877;50.930;6.918;2024-01-30T11:05:59;11.73;;;7.87;;
11642;SDS011;5877;50.930;6.918;2024-01-30T11:15:42;13.07;;;7.07;;
11642;SDS011;5877;50.930;6.918;2024-01-30T11:25:25;9.30;;;6.60;;
11642;SDS011;5877;50.930;6.918;2024-01-30T11:35:09;11.73;;;7.27;;
11642;SDS011;5877;50.930;6.918;2024-01-30T11:44:55;9.87;;;6.90;;
11642;SDS011;5877;50.930;6.918;2024-01-30T11:54:39;8.27;;;6.23;;
11642;SDS011;5877;50.930;6.918;2024-01-30T12:04:27;8.53;;;5.03;;
11642;SDS011;5877;50.930;6.918;2024-01-30T12:14:18;9.33;;;5.53;;
11642;SDS011;5877;50.930;6.918;2024-01-30T12:24:05;10.27;;;6.20;;
11642;SDS011;5877;50.930;6.918;2024-01-30T12:33:50;8.07;;;6.00;;
11642;SDS011;5877;50.930;6.918;2024-01-30T12:43:32;10.43;;;5.57;;
11642;SDS011;5877;50.930;6.918;2024-01-30T12:53:20;16.23;;;6.20;;
11642;SDS011;5877;50.930;6.918;2024-01-30T13:03:05;11.30;;;6.10;;
11642;SDS011;5877;50.930;6.918;2024-01-30T13:12:47;9.13;;;6.20;;
11642;SDS011;5877;50.930;6.918;2024-01-30T13:22:33;7.13;;;4.73;;
11642;SDS011;5877;50.930;6.918;2024-01-30T13:32:16;8.17;;;4.97;;
11642;SDS011;5877;50.930;6.918;2024-01-30T13:42:02;9.07;;;5.13;;
11642;SDS011;5877;50.930;6.918;2024-01-30T13:51:46;7.13;;;4.27;;
11642;SDS011;5877;50.930;6.918;2024-01-30T14:01:31;7.13;;;3.80;;
11642;SDS011;5877;50.930;6.918;2024-01-30T14:11:15;5.77;;;3.90;;
11642;SDS011;5877;50.930;6.918;2024-01-30T14:20:59;7.07;;;4.70;;
11642;SDS011;5877;50.930;6.918;2024-01-30T14:30:41;11.40;;;5.90;;
11642;SDS011;5877;50.930;6.918;2024-01-30T14:40:24;8.67;;;5.87;;
11642;SDS011;5877;50.930;6.918;2024-01-30T14:50:06;7.20;;;6.40;;
11642;SDS011;5877;50.930;6.918;2024-01-30T14:59:51;7.47;;;5.53;;
11642;SDS011;5877;50.930;6.918;2024-01-30T15:09:35;7.37;;;4.50;;
11642;SDS011;5877;50.930;6.918;2024-01-30T15:19:20;7.13;;;4.87;;
11642;SDS011;5877;50.930;6.918;2024-01-30T15:29:05;6.73;;;4.40;;
11642;SDS011;5877;50.930;6.918;2024-01-30T15:38:48;9.27;;;4.53;;
11642;SDS011;5877;50.930;6.918;2024-01-30T15:48:32;7.30;;;4.83;;
11642;SDS011;5877;50.930;6.918;2024-01-30T15:58:16;8.83;;;6.30;;
11642;SDS011;5877;50.930;6.918;2024-01-30T16:08:00;11.43;;;7.20;;
11642;SDS011;5877;50.930;6.918;2024-01-30T16:17:45;10.50;;;6.77;;
11642;SDS011;5877;50.930;6.918;2024-01-30T16:27:28;10.07;;;5.70;;
11642;SDS011;5877;50.930;6.918;2024-01-30T16:37:11;8.10;;;5.10;;
11642;SDS011;5877;50.930;6.918;2024-01-30T16:46:55;6.27;;;3.50;;
11642;SDS011;5877;50.930;6.918;2024-01-30T16:56:38;5.00;;;3.20;;
11642;SDS011;5877;50.930;6.918;2024-01-30T17:06:20;6.77;;;2.47;;
11642;SDS011;5877;50.930;6.918;2024-01-30T17:16:03;4.73;;;2.30;;
11642;SDS011;5877;50.930;6.918;2024-01-30T17:25:51;4.37;;;2.50;;
11642;SDS011;5877;50.930;6.918;2024-01-30T17:35:34;4.27;;;3.00;;
11642;SDS011;5877;50.930;6.918;2024-01-30T17:45:17;16.33;;;10.13;;
11642;SDS011;5877;50.930;6.918;2024-01-30T17:55:12;5.70;;;2.00;;
11642;SDS011;5877;50.930;6.918;2024-01-30T18:04:56;2.13;;;1.40;;
11642;SDS011;5877;50.930;6.918;2024-01-30T18:14:39;3.80;;;1.70;;
11642;SDS011;5877;50.930;6.918;2024-01-30T18:24:26;6.13;;;2.50;;
11642;SDS011;5877;50.930;6.918;2024-01-30T18:34:08;4.90;;;2.63;;
11642;SDS011;5877;50.930;6.918;2024-01-30T18:43:51;4.40;;;2.77;;
11642;SDS011;5877;50.930;6.918;2024-01-30T18:53:34;16.73;;;10.53;;
11642;SDS011;5877;50.930;6.918;2024-01-30T19:03:19;4.90;;;1.90;;
11642;SDS011;5877;50.930;6.918;2024-01-30T19:13:02;12.00;;;9.17;;
11642;SDS011;5877;50.930;6.918;2024-01-30T19:22:50;5.40;;;2.43;;
11642;SDS011;5877;50.930;6.918;2024-01-30T19:32:32;3.53;;;2.20;;
11642;SDS011;5877;50.930;6.918;2024-01-30T19:42:15;5.13;;;2.20;;
11642;SDS011;5877;50.930;6.918;2024-01-30T19:51:57;4.53;;;2.37;;
11642;SDS011;5877;50.930;6.918;2024-01-30T20:01:44;5.87;;;2.30;;
11642;SDS011;5877;50.930;6.918;2024-01-30T20:11:27;4.03;;;1.80;;
11642;SDS011;5877;50.930;6.918;2024-01-30T20:21:09;4.00;;;2.23;;
11642;SDS011;5877;50.930;6.918;2024-01-30T20:30:51;8.17;;;4.53;;
11642;SDS011;5877;50.930;6.918;2024-01-30T20:40:34;4.30;;;2.47;;
11642;SDS011;5877;50.930;6.918;2024-01-30T20:50:18;4.97;;;2.20;;
11642;SDS011;5877;50.930;6.918;2024-01-30T21:00:01;3.77;;;2.00;;
11642;SDS011;5877;50.930;6.918;2024-01-30T21:09:50;14.90;;;10.97;;
11642;SDS011;5877;50.930;6.918;2024-01-30T21:19:35;5.87;;;2.97;;
11642;SDS011;5877;50.930;6.918;2024-01-30T21:29:18;6.80;;;3.20;;
11642;SDS011;5877;50.930;6.918;2024-01-30T21:39:02;5.07;;;3.13;;
11642;SDS011;5877;50.930;6.918;2024-01-30T21:48:44;4.03;;;2.93;;
11642;SDS011;5877;50.930;6.918;2024-01-30T21:58:27;4.00;;;2.83;;
11642;SDS011;5877;50.930;6.918;2024-01-30T22:08:09;4.83;;;3.13;;
11642;SDS011;5877;50.930;6.918;2024-01-30T22:17:51;5.20;;;2.63;;
11642;SDS011;5877;50.930;6.918;2024-01-30T22:27:33;4.63;;;3.07;;
11642;SDS011;5877;50.930;6.918;2024-01-30T22:37:16;5.23;;;4.33;;
11642;SDS011;5877;50.930;6.918;2024-01-30T22:46:59;7.97;;;4.83;;
11642;SDS011;5877;50.930;6.918;2024-01-30T22:56:44;5.43;;;3.70;;
11642;SDS011;5877;50.930;6.918;2024-01-30T23:06:30;4.50;;;3.37;;
11642;SDS011;5877;50.930;6.918;2024-01-30T23:16:13;5.57;;;3.60;;
11642;SDS011;5877;50.930;6.918;2024-01-30T23:25:56;3.60;;;3.30;;
11642;SDS011;5877;50.930;6.918;2024-01-30T23:35:42;5.20;;;3.80;;
11642;SDS011;5877;50.930;6.918;2024-01-30T23:45:24;6.23;;;5.50;;
11642;SDS011;5877;50.930;6.918;2024-01-30T23:55:07;5.47;;;4.60;;
